Time;durP1;ratioP1;P1;durP2;ratioP2;P2;SDS_P1;SDS_P2;PMS_P1;PMS_P2;Temp;Humidity;BMP_temperature;BMP_pressure;BME280_temperature;BME280_humidity;BME280_pressure;Samples;Min_cycle;Max_cycle;Signal;HPM_P1;HPM_P2
2022/09/28 00:01:36;;;;;;;3.50;2.70;;;;;;;9.51;100.00;95089.81;108351;1267;22549;-81
2022/09/28 00:04:08;;;;;;;3.60;2.70;;;;;;;9.50;100.00;95089.18;108312;1268;24251;-81
2022/09/28 00:06:39;;;;;;;4.10;2.70;;;;;;;9.50;100.00;95089.93;108331;1268;23097;-81
2022/09/28 00:09:10;;;;;;;3.50;2.50;;;;;;;9.48;100.00;95084.46;108184;1271;32180;-81
2022/09/28 00:11:42;;;;;;;3.50;2.50;;;;;;;9.47;100.00;95083.89;108276;1271;22663;-81
2022/09/28 00:14:16;;;;;;;3.30;2.20;;;;;;;9.45;100.00;95089.40;108366;1268;22605;-81
2022/09/28 00:16:47;;;;;;;3.90;2.60;;;;;;;9.41;100.00;95089.72;108304;1271;23025;-81
2022/09/28 00:19:18;;;;;;;3.00;2.30;;;;;;;9.35;100.00;95091.20;108246;1270;33328;-81
2022/09/28 00:21:49;;;;;;;4.30;2.70;;;;;;;9.34;100.00;95090.14;108336;1268;24357;-81
2022/09/28 00:24:21;;;;;;;3.10;2.70;;;;;;;9.32;100.00;95088.48;108288;1270;22481;-81
2022/09/28 00:26:56;;;;;;;2.60;2.10;;;;;;;9.33;100.00;95087.62;108309;1268;22565;-81
2022/09/28 00:29:30;;;;;;;5.10;2.20;;;;;;;9.30;100.00;95084.63;108236;1270;28937;-81
2022/09/28 00:32:03;;;;;;;3.10;2.40;;;;;;;9.27;100.00;95075.66;108308;1271;22520;-81
2022/09/28 00:34:36;;;;;;;3.30;2.60;;;;;;;9.22;100.00;95074.89;108332;1268;24326;-80
2022/09/28 00:37:09;;;;;;;5.20;2.50;;;;;;;9.16;100.00;95075.45;108379;1269;22600;-80
2022/09/28 00:39:42;;;;;;;3.00;2.30;;;;;;;9.08;100.00;95072.39;108281;1271;25117;-81
2022/09/28 00:42:15;;;;;;;3.20;2.40;;;;;;;9.02;100.00;95064.46;108396;1268;22484;-81
2022/09/28 00:44:49;;;;;;;4.80;2.80;;;;;;;8.94;99.99;95057.97;108347;1267;22591;-81
2022/09/28 00:47:51;;;;;;;4.50;2.90;;;;;;;8.87;100.00;95059.51;108421;1268;23448;-81
2022/09/28 00:50:29;;;;;;;3.50;2.60;;;;;;;8.83;99.95;95063.73;108333;1268;25675;-81
2022/09/28 00:53:04;;;;;;;3.40;2.60;;;;;;;8.76;99.66;95059.32;108408;1268;23234;-81
2022/09/28 00:55:39;;;;;;;3.60;2.30;;;;;;;8.69;99.53;95063.48;108350;1268;25246;-81
2022/09/28 00:58:14;;;;;;;4.40;3.20;;;;;;;8.65;99.66;95064.46;108358;1268;22538;-81
2022/09/28 01:00:46;;;;;;;5.10;2.50;;;;;;;8.61;99.53;95061.67;108245;1268;27462;-81
2022/09/28 01:03:18;;;;;;;4.40;2.90;;;;;;;8.56;99.50;95062.58;108258;1269;22676;-81
2022/09/28 01:05:53;;;;;;;3.10;2.30;;;;;;;8.55;99.74;95065.08;108339;1268;22530;-80
2022/09/28 01:08:27;;;;;;;2.90;2.40;;;;;;;8.52;99.68;95059.48;108305;1268;29147;-80
2022/09/28 01:10:59;;;;;;;3.80;2.50;;;;;;;8.48;99.74;95062.20;108245;1271;22558;-80
2022/09/28 01:13:32;;;;;;;3.10;2.50;;;;;;;8.40;99.34;95059.65;108225;1271;22552;-81
2022/09/28 01:16:13;;;;;;;3.50;2.30;;;;;;;8.30;99.29;95059.65;108215;1271;25867;-80
2022/09/28 01:18:52;;;;;;;3.60;2.40;;;;;;;8.27;99.48;95062.83;108176;1271;33651;-81
2022/09/28 01:21:24;;;;;;;3.80;2.60;;;;;;;8.23;99.32;95061.41;108321;1268;22571;-80
2022/09/28 01:24:21;;;;;;;2.60;2.00;;;;;;;8.26;99.69;95061.33;108319;1268;22560;-80
2022/09/28 01:27:11;;;;;;;2.70;2.00;;;;;;;8.31;99.93;95067.19;108308;1268;22618;-80
2022/09/28 01:30:00;;;;;;;3.10;1.70;;;;;;;8.36;100.00;95067.62;108207;1268;25161;-80
2022/09/28 01:32:51;;;;;;;2.50;2.10;;;;;;;8.42;100.00;95061.55;108167;1268;25246;-80
2022/09/28 01:35:23;;;;;;;;;;;;;;;8.43;100.00;95059.29;108241;1270;22977;-80
2022/09/28 01:38:02;;;;;;;3.40;2.40;;;;;;;8.47;100.00;95058.59;108291;1269;22565;-80
2022/09/28 01:40:35;;;;;;;3.10;2.40;;;;;;;8.50;100.00;95055.02;108259;1268;29280;-80
2022/09/28 01:43:10;;;;;;;4.10;2.80;;;;;;;8.55;100.00;95054.30;108128;1268;212955;-80
2022/09/28 01:45:45;;;;;;;3.10;2.20;;;;;;;8.62;100.00;95050.40;108229;1271;22571;-80
2022/09/28 01:48:23;;;;;;;3.50;2.10;;;;;;;8.66;100.00;95053.70;108209;1270;24319;-81
2022/09/28 01:50:59;;;;;;;3.50;2.40;;;;;;;8.71;100.00;95055.65;108292;1268;22561;-80
2022/09/28 01:53:37;;;;;;;3.00;2.50;;;;;;;8.76;100.00;95058.55;108308;1268;25438;-80
2022/09/28 01:56:13;;;;;;;5.20;2.60;;;;;;;8.79;100.00;95057.88;108252;1271;23893;-80
2022/09/28 01:58:49;;;;;;;3.80;2.60;;;;;;;8.81;100.00;95058.44;108261;1268;28721;-80
2022/09/28 02:01:26;;;;;;;2.30;2.10;;;;;;;8.85;100.00;95062.46;108224;1271;22555;-80
2022/09/28 02:04:03;;;;;;;3.40;2.50;;;;;;;8.88;100.00;95066.78;108232;1271;22868;-81
2022/09/28 02:06:41;;;;;;;3.80;2.70;;;;;;;8.91;100.00;95068.53;108187;1271;24273;-80
2022/09/28 02:09:16;;;;;;;3.10;2.50;;;;;;;8.93;100.00;95070.96;108232;1268;27674;-80
2022/09/28 02:11:54;;;;;;;3.50;2.80;;;;;;;8.95;100.00;95067.17;108192;1271;22574;-80
2022/09/28 02:14:28;;;;;;;3.90;2.70;;;;;;;8.95;100.00;95066.11;108304;1268;22551;-80
2022/09/28 02:17:00;;;;;;;4.10;2.40;;;;;;;8.95;100.00;95067.64;108332;1268;22548;-81
2022/09/28 02:19:33;;;;;;;2.90;2.50;;;;;;;8.98;100.00;95073.86;108274;1269;26406;-80
2022/09/28 02:22:11;;;;;;;2.80;2.00;;;;;;;9.00;100.00;95076.88;108170;1271;22538;-80
2022/09/28 02:24:48;;;;;;;3.70;2.40;;;;;;;9.03;100.00;95080.77;108262;1270;22916;-80
2022/09/28 02:27:29;;;;;;;3.30;2.20;;;;;;;9.03;100.00;95086.28;108161;1270;25366;-80
2022/09/28 02:30:00;;;;;;;2.90;2.20;;;;;;;9.04;100.00;95088.05;108215;1268;26360;-80
2022/09/28 02:32:39;;;;;;;2.60;2.10;;;;;;;9.03;100.00;95089.33;108359;1268;24432;-80
2022/09/28 02:35:14;;;;;;;2.80;2.00;;;;;;;8.98;100.00;95088.38;108390;1268;22559;-80
2022/09/28 02:37:45;;;;;;;3.10;2.30;;;;;;;8.93;100.00;95086.04;108370;1268;22534;-80
2022/09/28 02:40:20;;;;;;;3.30;2.30;;;;;;;8.94;100.00;95086.60;108309;1268;29861;-80
2022/09/28 02:43:02;;;;;;;2.10;1.90;;;;;;;8.95;100.00;95093.38;108316;1268;24222;-80
2022/09/28 02:45:44;;;;;;;3.20;2.70;;;;;;;8.92;100.00;95100.88;108409;1268;23851;-80
2022/09/28 02:48:29;;;;;;;5.20;2.40;;;;;;;8.89;100.00;95098.84;108365;1268;25403;-80
2022/09/28 02:51:19;;;;;;;3.30;2.20;;;;;;;8.86;100.00;95100.22;108322;1268;22600;-80
2022/09/28 02:54:24;;;;;;;2.60;2.20;;;;;;;8.83;100.00;95098.52;108377;1267;22653;-80
2022/09/28 02:57:12;;;;;;;2.90;2.40;;;;;;;8.82;100.00;95101.43;108307;1268;22578;-80
2022/09/28 02:59:53;;;;;;;3.70;2.40;;;;;;;8.80;100.00;95101.23;108252;1268;24343;-80
2022/09/28 03:02:31;;;;;;;3.40;2.60;;;;;;;8.75;100.00;95105.11;108317;1268;22560;-80
2022/09/28 03:05:14;;;;;;;5.20;2.70;;;;;;;8.73;100.00;95102.42;108390;1268;24403;-80
2022/09/28 03:07:57;;;;;;;3.80;2.80;;;;;;;8.70;100.00;95091.70;108353;1268;23230;-80
2022/09/28 03:10:37;;;;;;;3.20;2.70;;;;;;;8.68;100.00;95086.94;108286;1268;26848;-80
2022/09/28 03:13:11;;;;;;;3.30;2.20;;;;;;;8.69;100.00;95088.24;108391;1268;22679;-80
2022/09/28 03:15:43;;;;;;;5.50;2.50;;;;;;;8.66;100.00;95092.18;108414;1267;22578;-80
2022/09/28 03:18:14;;;;;;;3.80;2.80;;;;;;;8.63;100.00;95087.73;108326;1268;22555;-80
2022/09/28 03:20:47;;;;;;;4.80;2.90;;;;;;;8.52;100.00;95085.55;108263;1268;24607;-80
2022/09/28 03:23:19;;;;;;;3.90;2.60;;;;;;;8.42;100.00;95088.21;108395;1267;22524;-80
2022/09/28 03:25:50;;;;;;;3.10;2.50;;;;;;;8.33;100.00;95089.54;108378;1267;22527;-80
2022/09/28 03:28:22;;;;;;;4.10;2.90;;;;;;;8.25;100.00;95094.66;108367;1268;30329;-76
2022/09/28 03:30:53;;;;;;;3.30;2.70;;;;;;;8.19;100.00;95093.13;108350;1268;39772;-80
2022/09/28 03:33:24;;;;;;;5.90;2.60;;;;;;;8.12;100.00;95091.70;108311;1268;22571;-80
2022/09/28 03:35:55;;;;;;;3.40;2.70;;;;;;;8.06;100.00;95091.95;108372;1268;22613;-80
2022/09/28 03:38:27;;;;;;;3.00;2.60;;;;;;;8.01;100.00;95089.77;108310;1267;24569;-80
2022/09/28 03:41:00;;;;;;;4.30;3.00;;;;;;;7.96;100.00;95089.06;108362;1267;22550;-81
2022/09/28 03:43:31;;;;;;;3.80;2.50;;;;;;;7.90;100.00;95090.29;108383;1268;22476;-80
2022/09/28 03:46:04;;;;;;;3.70;2.80;;;;;;;7.86;100.00;95089.91;108380;1267;22545;-80
2022/09/28 03:48:37;;;;;;;3.10;2.70;;;;;;;7.82;100.00;95092.17;108345;1266;31215;-80
2022/09/28 03:51:10;;;;;;;2.90;2.60;;;;;;;7.76;100.00;95090.98;108388;1267;23030;-80
2022/09/28 03:53:42;;;;;;;3.10;2.80;;;;;;;7.69;100.00;95094.11;108315;1268;22558;-80
2022/09/28 03:56:16;;;;;;;2.90;2.60;;;;;;;7.64;100.00;95097.08;108302;1268;24335;-80
2022/09/28 03:58:47;;;;;;;3.90;2.60;;;;;;;7.59;100.00;95099.88;108290;1268;27440;-80
2022/09/28 04:01:18;;;;;;;3.50;2.70;;;;;;;7.53;100.00;95101.73;108380;1268;22546;-81
2022/09/28 04:03:55;;;;;;;4.60;2.90;;;;;;;7.49;100.00;95105.46;108391;1267;24295;-80
2022/09/28 04:06:27;;;;;;;3.30;2.70;;;;;;;7.53;100.00;95108.97;108419;1267;25127;-80
2022/09/28 04:08:59;;;;;;;3.60;2.70;;;;;;;7.51;100.00;95105.16;108241;1268;38486;-80
2022/09/28 04:11:30;;;;;;;3.00;2.70;;;;;;;7.50;100.00;95103.61;108327;1268;22528;-80
2022/09/28 04:14:01;;;;;;;3.10;2.70;;;;;;;7.51;100.00;95107.55;108405;1267;25363;-80
2022/09/28 04:16:33;;;;;;;3.60;2.60;;;;;;;7.48;100.00;95110.45;108296;1268;23238;-80
2022/09/28 04:19:04;;;;;;;3.60;2.80;;;;;;;7.45;100.00;95114.40;108338;1267;31808;-80
2022/09/28 04:21:37;;;;;;;3.00;2.50;;;;;;;7.38;100.00;95110.52;108376;1268;22720;-80
2022/09/28 04:24:08;;;;;;;4.60;2.80;;;;;;;7.34;100.00;95110.40;108404;1268;24486;-80
2022/09/28 04:26:40;;;;;;;3.30;2.40;;;;;;;7.33;100.00;95112.11;108319;1268;22562;-80
2022/09/28 04:29:19;;;;;;;2.80;2.60;;;;;;;7.28;100.00;95112.98;108263;1268;23803;-80
2022/09/28 04:31:52;;;;;;;3.20;2.80;;;;;;;7.21;100.00;95113.46;108262;1270;22545;-80
2022/09/28 04:34:24;;;;;;;3.80;2.60;;;;;;;7.14;100.00;95113.13;108299;1270;23970;-80
2022/09/28 04:36:55;;;;;;;2.90;2.60;;;;;;;7.14;100.00;95112.95;108181;1270;22558;-80
2022/09/28 04:39:29;;;;;;;4.90;2.80;;;;;;;7.13;100.00;95108.10;108253;1268;25098;-80
2022/09/28 04:42:00;;;;;;;2.90;2.40;;;;;;;7.12;100.00;95115.04;108251;1270;22589;-80
2022/09/28 04:44:32;;;;;;;3.90;3.10;;;;;;;7.07;100.00;95120.84;108304;1268;22545;-80
2022/09/28 04:47:03;;;;;;;4.40;3.20;;;;;;;7.02;100.00;95118.59;108302;1268;22564;-80
2022/09/28 04:49:35;;;;;;;5.60;3.00;;;;;;;7.02;100.00;95122.08;108196;1270;31238;-80
2022/09/28 04:52:08;;;;;;;3.90;3.20;;;;;;;7.03;100.00;95129.02;108309;1268;22547;-80
2022/09/28 04:54:39;;;;;;;3.10;2.80;;;;;;;7.04;100.00;95134.59;108312;1268;22562;-80
2022/09/28 04:57:11;;;;;;;5.40;3.20;;;;;;;7.16;100.00;95131.45;108162;1270;22552;-80
2022/09/28 04:59:42;;;;;;;3.90;3.10;;;;;;;7.35;100.00;95138.70;108229;1268;25543;-80
2022/09/28 05:02:14;;;;;;;4.00;2.60;;;;;;;7.97;100.00;95137.06;108205;1270;22618;-80
2022/09/28 05:04:47;;;;;;;3.50;2.80;;;;;;;8.65;100.00;95135.16;108319;1268;22533;-80
2022/09/28 05:07:19;;;;;;;2.30;2.10;;;;;;;9.30;100.00;95133.55;108207;1270;22707;-81
2022/09/28 05:09:51;;;;;;;2.90;2.00;;;;;;;9.98;99.84;95133.91;108261;1268;30568;-80
2022/09/28 05:12:23;;;;;;;2.20;1.40;;;;;;;10.37;96.98;95135.67;108305;1268;24224;-80
2022/09/28 05:14:55;;;;;;;1.50;1.30;;;;;;;10.64;95.26;95131.48;108315;1268;24380;-81
2022/09/28 05:17:26;;;;;;;2.60;1.20;;;;;;;11.08;94.17;95129.34;108259;1270;22682;-81
2022/09/28 05:19:57;;;;;;;1.40;1.30;;;;;;;11.69;93.43;95131.75;108227;1268;30845;-81
2022/09/28 05:22:29;;;;;;;1.80;1.40;;;;;;;12.31;91.50;95122.56;108306;1268;22558;-81
2022/09/28 05:25:01;;;;;;;1.60;1.20;;;;;;;12.82;89.50;95124.64;108328;1268;22551;-81
2022/09/28 05:27:32;;;;;;;1.70;1.10;;;;;;;13.25;86.11;95128.22;108323;1267;22951;-80
2022/09/28 05:30:05;;;;;;;2.30;1.00;;;;;;;13.08;81.05;95130.33;108274;1268;24904;-81
2022/09/28 05:32:39;;;;;;;2.20;0.90;;;;;;;13.22;81.51;95129.35;108252;1270;24234;-81
2022/09/28 05:35:11;;;;;;;0.80;0.70;;;;;;;12.99;77.18;95125.36;108293;1268;22705;-81
2022/09/28 05:37:43;;;;;;;1.20;0.90;;;;;;;11.81;75.36;95123.70;108238;1268;23908;-81
2022/09/28 05:40:17;;;;;;;2.60;1.00;;;;;;;11.03;76.68;95131.64;108236;1270;28997;-81
2022/09/28 05:42:49;;;;;;;0.80;0.60;;;;;;;11.43;77.64;95123.46;108309;1268;24303;-81
2022/09/28 05:45:20;;;;;;;1.30;0.90;;;;;;;11.39;75.90;95130.75;108254;1270;22597;-82
2022/09/28 05:47:51;;;;;;;0.80;0.80;;;;;;;10.75;75.81;95137.74;108287;1268;22536;-81
2022/09/28 05:50:22;;;;;;;1.20;0.90;;;;;;;10.02;76.72;95139.92;108168;1270;27176;-82
2022/09/28 05:53:01;;;;;;;2.10;1.00;;;;;;;9.59;78.11;95143.39;108329;1268;25370;-81
2022/09/28 05:55:33;;;;;;;2.60;1.00;;;;;;;9.27;79.27;95145.06;108236;1270;25015;-82
2022/09/28 05:58:06;;;;;;;0.90;0.70;;;;;;;9.06;80.05;95141.95;108317;1268;22565;-82
2022/09/28 06:00:37;;;;;;;1.80;0.80;;;;;;;8.90;80.44;95147.22;108245;1267;34536;-82
2022/09/28 06:03:13;;;;;;;1.10;0.90;;;;;;;8.88;81.33;95151.55;108265;1270;22538;-81
2022/09/28 06:05:46;;;;;;;0.80;0.70;;;;;;;9.09;82.18;95150.14;108339;1268;22537;-81
2022/09/28 06:08:17;;;;;;;2.20;0.80;;;;;;;9.70;82.65;95147.23;108345;1268;25404;-81
2022/09/28 06:10:48;;;;;;;1.20;0.80;;;;;;;10.94;80.41;95141.70;108307;1270;23864;-81
2022/09/28 06:13:22;;;;;;;0.60;0.50;;;;;;;11.94;75.97;95132.31;108315;1268;22531;-82
2022/09/28 06:15:54;;;;;;;1.60;0.60;;;;;;;12.70;73.58;95131.84;108228;1270;22658;-82
2022/09/28 06:18:25;;;;;;;1.00;0.60;;;;;;;13.48;69.95;95129.36;108284;1268;24841;-82
2022/09/28 06:20:56;;;;;;;0.80;0.70;;;;;;;13.67;65.93;95127.21;108255;1270;22542;-82
2022/09/28 06:23:27;;;;;;;0.60;0.50;;;;;;;13.86;65.31;95124.04;108326;1268;22777;-82
2022/09/28 06:26:00;;;;;;;1.10;0.60;;;;;;;14.14;63.89;95131.36;108314;1268;22634;-83
2022/09/28 06:28:32;;;;;;;2.70;1.00;;;;;;;14.57;63.47;95130.23;108204;1270;28192;-82
2022/09/28 06:31:03;;;;;;;0.80;0.60;;;;;;;14.72;61.43;95128.14;108318;1268;22557;-82
2022/09/28 06:33:37;;;;;;;0.60;0.50;;;;;;;15.00;61.94;95131.09;108331;1268;22550;-82
2022/09/28 06:36:10;;;;;;;2.40;0.70;;;;;;;15.52;60.63;95137.65;108218;1270;24369;-82
2022/09/28 06:38:41;;;;;;;1.10;0.50;;;;;;;16.16;62.08;95136.20;108227;1268;38717;-82
2022/09/28 06:41:13;;;;;;;0.70;0.50;;;;;;;17.26;58.72;95124.21;108199;1270;23021;-83
2022/09/28 06:43:47;;;;;;;0.90;0.70;;;;;;;16.87;56.07;95122.61;108239;1269;25409;-82
2022/09/28 06:46:19;;;;;;;1.40;0.60;;;;;;;17.19;57.62;95126.25;108348;1270;22565;-82
2022/09/28 06:48:51;;;;;;;0.90;0.60;;;;;;;18.04;57.21;95120.95;108267;1268;24361;-82
2022/09/28 06:51:23;;;;;;;1.10;0.70;;;;;;;18.30;55.34;95116.77;108231;1270;24422;-82
2022/09/28 06:53:55;;;;;;;0.90;0.90;;;;;;;18.77;55.84;95108.00;108278;1270;22661;-81
2022/09/28 06:56:27;;;;;;;1.00;0.80;;;;;;;19.76;54.93;95105.32;108243;1270;22617;-81
2022/09/28 06:58:58;;;;;;;1.00;0.70;;;;;;;20.35;53.39;95105.93;108151;1270;30091;-82
2022/09/28 07:01:30;;;;;;;2.30;1.20;;;;;;;20.54;50.64;95101.42;108271;1270;24221;-82
2022/09/28 07:04:02;;;;;;;1.20;1.10;;;;;;;20.26;50.80;95110.26;108272;1270;22814;-82
2022/09/28 07:06:33;;;;;;;1.20;1.00;;;;;;;19.84;48.94;95113.39;108248;1270;22750;-82
2022/09/28 07:09:06;;;;;;;2.60;1.50;;;;;;;19.74;50.52;95110.63;108102;1270;29314;-82
2022/09/28 07:11:43;;;;;;;2.50;1.40;;;;;;;20.52;50.32;95112.55;108174;1270;22527;-82
2022/09/28 07:14:15;;;;;;;1.70;1.20;;;;;;;21.04;48.75;95115.83;108262;1270;24238;-82
2022/09/28 07:16:46;;;;;;;1.40;1.00;;;;;;;21.63;48.11;95122.02;108284;1270;25876;-82
2022/09/28 07:19:17;;;;;;;2.70;1.30;;;;;;;22.00;47.87;95119.60;108162;1270;25286;-82
2022/09/28 07:21:48;;;;;;;1.60;1.30;;;;;;;22.44;46.84;95123.16;108142;1270;22533;-82
2022/09/28 07:24:20;;;;;;;1.20;1.10;;;;;;;22.34;45.38;95123.64;108252;1268;23964;-82
2022/09/28 07:26:51;;;;;;;1.10;1.00;;;;;;;21.71;44.91;95129.64;108274;1270;24243;-82
2022/09/28 07:29:23;;;;;;;1.40;1.00;;;;;;;21.70;43.46;95135.80;108059;1269;32920;-82
2022/09/28 07:31:56;;;;;;;1.90;0.80;;;;;;;20.92;43.48;95137.71;108268;1270;22597;-82
2022/09/28 07:34:28;;;;;;;1.60;0.70;;;;;;;20.03;41.94;95137.59;108248;1270;22583;-81
2022/09/28 07:36:59;;;;;;;1.00;0.40;;;;;;;18.18;44.59;95138.52;108173;1270;22546;-82
2022/09/28 07:41:10;;;;;;;1.10;0.50;;;;;;;16.67;45.75;95140.09;108141;1270;23871;-82
2022/09/28 07:42:22;;;;;;;1.10;0.50;;;;;;;15.06;48.43;95151.20;108273;1269;22562;-82
2022/09/28 07:44:54;;;;;;;2.60;0.70;;;;;;;14.44;50.38;95143.42;108247;1270;22536;-82
2022/09/28 07:47:26;;;;;;;0.50;0.40;;;;;;;13.59;52.20;95144.67;108244;1270;25283;-82
2022/09/28 07:49:58;;;;;;;1.40;1.30;;;;;;;13.65;53.93;95149.89;108228;1268;30554;-82
2022/09/28 07:52:29;;;;;;;1.10;0.80;;;;;;;14.51;53.88;95146.73;108346;1268;22538;-81
2022/09/28 07:55:01;;;;;;;0.90;0.90;;;;;;;15.62;53.79;95147.92;108276;1270;22542;-82
2022/09/28 07:57:34;;;;;;;2.00;1.20;;;;;;;17.98;52.34;95139.20;108311;1268;22562;-82
2022/09/28 08:00:07;;;;;;;0.80;0.80;;;;;;;18.13;48.74;95143.04;108105;1270;38260;-82
2022/09/28 08:02:39;;;;;;;0.60;0.50;;;;;;;17.14;49.34;95142.77;108184;1270;22552;-81
2022/09/28 08:05:12;;;;;;;0.80;0.80;;;;;;;17.46;49.92;95146.77;108189;1270;23842;-81
2022/09/28 08:07:44;;;;;;;1.30;1.20;;;;;;;19.03;50.36;95144.58;108318;1270;22561;-82
2022/09/28 08:10:16;;;;;;;1.50;0.90;;;;;;;19.91;50.36;95145.60;108213;1270;25529;-82
2022/09/28 08:12:47;;;;;;;1.40;0.50;;;;;;;20.95;47.50;95133.95;108247;1270;22542;-81
2022/09/28 08:15:19;;;;;;;1.20;0.60;;;;;;;19.73;46.99;95132.39;108257;1269;23741;-82
2022/09/28 08:17:51;;;;;;;0.70;0.50;;;;;;;18.77;47.13;95135.47;108265;1270;24365;-82
2022/09/28 08:23:11;;;;;;;0.70;0.40;;;;;;;18.04;47.84;95137.27;108215;1270;22631;-82
2022/09/28 08:25:48;;;;;;;0.80;0.50;;;;;;;18.59;46.54;95131.12;108294;1270;22537;-82
2022/09/28 08:28:20;;;;;;;0.30;0.30;;;;;;;17.62;47.21;95138.45;108367;1270;24319;-82
2022/09/28 08:30:53;;;;;;;0.90;0.50;;;;;;;17.32;48.62;95136.42;108321;1270;25416;-82
2022/09/28 08:33:24;;;;;;;1.10;0.50;;;;;;;17.71;50.28;95132.59;108187;1270;25404;-81
2022/09/28 08:35:59;;;;;;;1.60;0.50;;;;;;;19.27;49.44;95131.46;108320;1270;22607;-82
2022/09/28 08:38:32;;;;;;;0.60;0.50;;;;;;;19.50;46.63;95132.84;108099;1270;37538;-82
2022/09/28 08:41:17;;;;;;;0.60;0.40;;;;;;;19.17;46.40;95140.45;108203;1270;22533;-82
2022/09/28 08:44:03;;;;;;;0.60;0.50;;;;;;;19.53;46.09;95135.10;108268;1270;25267;-82
2022/09/28 08:46:38;;;;;;;1.80;0.70;;;;;;;18.89;45.94;95129.79;108210;1270;22637;-82
2022/09/28 08:49:13;;;;;;;0.90;0.70;;;;;;;19.00;47.81;95129.73;108150;1270;29714;-82
2022/09/28 08:51:50;;;;;;;2.30;0.60;;;;;;;18.88;47.75;95123.87;108228;1270;22545;-82
2022/09/28 08:54:33;;;;;;;0.70;0.50;;;;;;;18.81;48.63;95114.97;108185;1270;22572;-82
2022/09/28 08:57:11;;;;;;;0.90;0.50;;;;;;;18.11;47.24;95117.98;108152;1269;25896;-82
2022/09/28 08:59:50;;;;;;;1.00;0.40;;;;;;;17.28;48.37;95110.02;108181;1270;25258;-83
2022/09/28 09:02:25;;;;;;;0.80;0.50;;;;;;;16.25;48.42;95110.83;108378;1268;22571;-82
2022/09/28 09:04:58;;;;;;;0.80;0.50;;;;;;;15.30;49.29;95113.98;108332;1268;24305;-82
2022/09/28 09:07:50;;;;;;;0.90;0.60;;;;;;;14.80;51.11;95115.01;108261;1270;25893;-82
2022/09/28 09:10:47;;;;;;;1.60;0.60;;;;;;;14.78;51.96;95113.60;108291;1268;22558;-83
2022/09/28 09:13:40;;;;;;;0.70;0.40;;;;;;;14.89;52.82;95107.98;108270;1270;23746;-82
2022/09/28 09:16:23;;;;;;;0.60;0.50;;;;;;;14.73;53.40;95104.76;108320;1265;22520;-83
2022/09/28 09:19:03;;;;;;;1.30;0.40;;;;;;;14.80;53.37;95103.05;108180;1270;32552;-83
2022/09/28 09:21:43;;;;;;;0.80;0.40;;;;;;;14.74;53.60;95102.97;108281;1270;22665;-82
2022/09/28 09:24:26;;;;;;;0.80;0.60;;;;;;;14.39;53.56;95110.58;108175;1270;22519;-83
2022/09/28 09:27:07;;;;;;;0.80;0.50;;;;;;;14.34;54.27;95110.50;108287;1270;22645;-82
2022/09/28 09:29:54;;;;;;;0.90;0.40;;;;;;;14.25;53.96;95117.35;108256;1270;27268;-82
2022/09/28 09:32:41;;;;;;;0.30;0.30;;;;;;;14.18;54.03;95106.03;108227;1270;22542;-82
2022/09/28 09:35:51;;;;;;;0.30;0.30;;;;;;;14.05;54.29;95119.13;108273;1270;22544;-83
2022/09/28 09:38:40;;;;;;;0.30;0.30;;;;;;;13.89;54.03;95110.73;108178;1270;25951;-81
2022/09/28 09:41:21;;;;;;;0.70;0.50;;;;;;;13.94;54.76;95108.09;108284;1270;22541;-83
2022/09/28 09:44:15;;;;;;;0.60;0.40;;;;;;;14.01;54.83;95113.32;108311;1270;22546;-83
2022/09/28 09:46:51;;;;;;;0.70;0.40;;;;;;;13.65;54.16;95122.43;108354;1268;22493;-83
2022/09/28 09:49:28;;;;;;;1.10;0.40;;;;;;;13.27;54.81;95125.64;108264;1268;23994;-84
2022/09/28 09:52:04;;;;;;;0.50;0.20;;;;;;;13.25;54.79;95125.13;108243;1269;22543;-82
2022/09/28 09:54:40;;;;;;;0.40;0.40;;;;;;;13.26;55.02;95132.75;108283;1268;22564;-83
2022/09/28 09:57:17;;;;;;;2.00;0.60;;;;;;;13.46;55.88;95127.60;108331;1268;26154;-83
2022/09/28 09:59:49;;;;;;;0.80;0.50;;;;;;;13.74;55.92;95122.63;108194;1268;42737;-83
2022/09/28 10:02:26;;;;;;;1.40;0.60;;;;;;;13.77;56.06;95123.62;108341;1268;23896;-82
2022/09/28 10:05:02;;;;;;;0.50;0.30;;;;;;;13.88;56.25;95115.52;108301;1270;22526;-83
2022/09/28 10:07:42;;;;;;;1.50;0.20;;;;;;;13.86;55.04;95121.54;108355;1268;23184;-83
2022/09/28 10:10:21;;;;;;;1.10;0.30;;;;;;;13.63;54.58;95123.65;108286;1268;29217;-82
2022/09/28 10:12:54;;;;;;;0.70;0.30;;;;;;;13.35;54.31;95121.31;108358;1268;22550;-83
2022/09/28 10:15:27;;;;;;;0.30;0.20;;;;;;;13.23;55.51;95117.45;108406;1267;22670;-83
2022/09/28 10:18:05;;;;;;;0.40;0.20;;;;;;;13.37;56.39;95119.41;108426;1267;23129;-83
2022/09/28 10:20:40;;;;;;;0.50;0.30;;;;;;;13.45;55.86;95113.95;108237;1270;26812;-83
2022/09/28 10:23:21;;;;;;;0.20;0.20;;;;;;;13.45;56.63;95113.42;108256;1270;22560;-84
2022/09/28 10:25:55;;;;;;;0.80;0.40;;;;;;;13.43;56.14;95115.73;108284;1270;22567;-83
2022/09/28 10:28:35;;;;;;;0.30;0.20;;;;;;;13.37;56.82;95112.42;108250;1269;30883;-82
2022/09/28 10:31:36;;;;;;;0.40;0.30;;;;;;;13.36;57.31;95113.98;108343;1268;25239;-83
2022/09/28 10:34:07;;;;;;;;;;;;;;;13.39;57.35;95110.52;108338;1268;22539;-84
2022/09/28 10:36:49;;;;;;;0.60;0.20;;;;;;;13.26;56.25;95108.80;108335;1268;24282;-84
2022/09/28 10:39:43;;;;;;;1.10;0.40;;;;;;;13.16;56.56;95103.34;108273;1268;23040;-84
2022/09/28 10:42:22;;;;;;;0.40;0.30;;;;;;;13.27;57.31;95106.84;108296;1270;24471;-84
2022/09/28 10:44:59;;;;;;;1.40;0.50;;;;;;;13.28;57.46;95105.30;108336;1268;22596;-84
2022/09/28 10:47:33;;;;;;;1.10;0.30;;;;;;;13.24;57.50;95103.34;108321;1268;24285;-84
2022/09/28 10:50:19;;;;;;;0.80;0.40;;;;;;;13.07;56.44;95095.77;108198;1270;38562;-84
2022/09/28 10:52:50;;;;;;;0.60;0.40;;;;;;;12.93;57.08;95102.96;108288;1267;22561;-84
2022/09/28 10:55:31;;;;;;;0.40;0.20;;;;;;;12.98;57.61;95092.66;108292;1270;22594;-84
2022/09/28 10:58:17;;;;;;;2.10;0.50;;;;;;;13.06;57.11;95086.77;108188;1270;22539;-84
2022/09/28 11:00:49;;;;;;;0.90;0.40;;;;;;;13.23;57.93;95088.85;108189;1270;22536;-84
2022/09/28 11:03:24;;;;;;;1.60;0.40;;;;;;;13.54;57.51;95078.41;108176;1270;22652;-83
2022/09/28 11:06:02;;;;;;;0.20;0.10;;;;;;;13.54;56.88;95078.64;108270;1270;22646;-83
2022/09/28 11:08:39;;;;;;;1.50;0.50;;;;;;;13.50;57.11;95073.04;108112;1270;37460;-84
2022/09/28 11:11:14;;;;;;;1.20;0.50;;;;;;;13.58;56.95;95068.94;108407;1267;22518;-83
2022/09/28 11:13:50;;;;;;;0.70;0.40;;;;;;;13.66;57.51;95070.88;108383;1267;22532;-83
2022/09/28 11:16:24;;;;;;;0.80;0.50;;;;;;;14.02;58.19;95069.57;108414;1267;22552;-82
2022/09/28 11:18:57;;;;;;;0.90;0.40;;;;;;;14.25;57.09;95065.58;108270;1265;31890;-82
2022/09/28 11:21:31;;;;;;;0.70;0.30;;;;;;;14.44;57.38;95059.56;108335;1270;22781;-82
2022/09/28 11:24:07;;;;;;;1.00;0.30;;;;;;;14.58;56.90;95058.17;108320;1268;22675;-83
2022/09/28 11:26:44;;;;;;;0.70;0.30;;;;;;;14.72;56.86;95049.03;108320;1270;22542;-83
2022/09/28 11:29:31;;;;;;;0.90;0.30;;;;;;;14.83;56.44;95056.09;108331;1268;29828;-83
2022/09/28 11:32:05;;;;;;;0.50;0.20;;;;;;;14.88;56.09;95062.84;108427;1267;22523;-82
2022/09/28 11:34:44;;;;;;;0.20;0.20;;;;;;;14.85;53.48;95048.81;108364;1267;22539;-82
2022/09/28 11:37:44;;;;;;;1.10;0.20;;;;;;;14.56;52.20;95057.52;108336;1267;24231;-82
2022/09/28 11:40:29;;;;;;;1.90;0.40;;;;;;;14.60;53.67;95055.96;108304;1269;24460;-82
2022/09/28 11:43:13;;;;;;;0.20;0.20;;;;;;;14.72;52.75;95050.55;108304;1270;24272;-82
2022/09/28 11:45:54;;;;;;;0.60;0.30;;;;;;;14.75;53.39;95032.11;108220;1270;22646;-82
2022/09/28 11:48:34;;;;;;;0.90;0.30;;;;;;;14.90;53.64;95025.30;108236;1270;32579;-81
2022/09/28 11:51:16;;;;;;;0.30;0.20;;;;;;;15.06;53.96;95019.45;108337;1270;22549;-82
2022/09/28 11:53:54;;;;;;;0.30;0.30;;;;;;;15.22;53.04;95015.71;108324;1270;24262;-82
2022/09/28 11:56:36;;;;;;;1.40;0.30;;;;;;;15.23;53.11;95023.73;108209;1270;22543;-82
2022/09/28 11:59:12;;;;;;;0.20;0.20;;;;;;;15.37;53.20;95024.51;108229;1268;27990;-82
2022/09/28 12:01:49;;;;;;;1.10;0.70;;;;;;;15.45;52.62;95023.10;108369;1268;22698;-82
2022/09/28 12:04:25;;;;;;;1.00;0.40;;;;;;;15.55;52.84;95028.52;108338;1268;22605;-83
2022/09/28 12:07:03;;;;;;;1.00;0.50;;;;;;;15.65;52.56;95022.52;108337;1269;22558;-83
2022/09/28 12:09:40;;;;;;;0.50;0.20;;;;;;;15.70;51.37;95017.18;108248;1268;29559;-82